Time;durP1;ratioP1;P1;durP2;ratioP2;P2;SDS_P1;SDS_P2;PMS_P1;PMS_P2;Temp;Humidity;BMP_temperature;BMP_pressure;BME280_temperature;BME280_humidity;BME280_pressure;Samples;Min_cycle;Max_cycle;Signal;HPM_P1;HPM_P2
2023/09/14 00:00:56;;;;;;;0.10;0.10;;;;;;;;;;5021589;28;20459;-71
2023/09/14 00:03:24;;;;;;;0.20;0.20;;;;;;;;;;5023274;28;20049;-72
2023/09/14 00:05:51;;;;;;;0.52;0.35;;;;;;;;;;5021868;28;20490;-73
2023/09/14 00:08:20;;;;;;;0.00;0.00;;;;;;;;;;5022312;28;20046;-71
2023/09/14 00:10:52;;;;;;;0.00;0.00;;;;;;;;;;5022772;28;20080;-74
2023/09/14 00:13:20;;;;;;;0.00;0.00;;;;;;;;;;5021070;28;20060;-74
2023/09/14 00:15:47;;;;;;;0.25;0.10;;;;;;;;;;5022110;28;20079;-70
2023/09/14 00:18:15;;;;;;;0.10;0.10;;;;;;;;;;5017323;28;20045;-70
2023/09/14 00:20:42;;;;;;;0.03;0.03;;;;;;;;;;5022257;28;20077;-71
2023/09/14 00:23:10;;;;;;;0.00;0.00;;;;;;;;;;5023717;28;20056;-70
2023/09/14 00:25:37;;;;;;;0.00;0.00;;;;;;;;;;5020772;28;20069;-70
2023/09/14 00:28:05;;;;;;;0.00;0.00;;;;;;;;;;5022114;28;20041;-71
2023/09/14 00:30:32;;;;;;;0.00;0.00;;;;;;;;;;5022906;28;20045;-74
2023/09/14 00:33:00;;;;;;;0.00;0.00;;;;;;;;;;5020435;28;20104;-70
2023/09/14 00:35:28;;;;;;;0.10;0.10;;;;;;;;;;5021459;28;20052;-68
2023/09/14 00:37:55;;;;;;;0.00;0.00;;;;;;;;;;5020998;28;20045;-68
2023/09/14 00:40:23;;;;;;;0.00;0.00;;;;;;;;;;5021223;28;20403;-67
2023/09/14 00:42:51;;;;;;;0.10;0.10;;;;;;;;;;5016766;28;20139;-69
2023/09/14 00:45:20;;;;;;;0.17;0.17;;;;;;;;;;5021291;28;20054;-68
2023/09/14 00:47:47;;;;;;;0.00;0.00;;;;;;;;;;5015778;28;20051;-68
2023/09/14 00:50:16;;;;;;;0.00;0.00;;;;;;;;;;5021692;28;20045;-69
2023/09/14 00:52:49;;;;;;;0.10;0.10;;;;;;;;;;5018960;28;20048;-68
2023/09/14 00:55:20;;;;;;;0.00;0.00;;;;;;;;;;5021154;28;20381;-68
2023/09/14 00:57:48;;;;;;;0.00;0.00;;;;;;;;;;5016204;28;20128;-69
2023/09/14 01:00:16;;;;;;;0.00;0.00;;;;;;;;;;5018807;28;20096;-69
2023/09/14 01:02:44;;;;;;;0.00;0.00;;;;;;;;;;5018177;28;20487;-69
2023/09/14 01:05:16;;;;;;;0.73;0.73;;;;;;;;;;5023248;28;20124;-69
2023/09/14 01:07:44;;;;;;;0.10;0.10;;;;;;;;;;5020349;28;20037;-68
2023/09/14 01:10:12;;;;;;;2.00;1.85;;;;;;;;;;5017051;28;20045;-69
2023/09/14 01:12:39;;;;;;;0.75;0.75;;;;;;;;;;5019789;28;20200;-67
2023/09/14 01:15:10;;;;;;;0.43;0.43;;;;;;;;;;5019783;28;20041;-67
2023/09/14 01:17:56;;;;;;;0.00;0.00;;;;;;;;;;5020685;28;20056;-66
2023/09/14 01:21:00;;;;;;;0.00;0.00;;;;;;;;;;5017984;28;20041;-67
2023/09/14 01:23:42;;;;;;;0.00;0.00;;;;;;;;;;5018219;28;20053;-67
2023/09/14 01:26:09;;;;;;;;;;;;;;;;;;5021133;28;20037;-67
2023/09/14 01:28:37;;;;;;;0.00;0.00;;;;;;;;;;5014694;28;19932;-69
2023/09/14 01:31:05;;;;;;;0.00;0.00;;;;;;;;;;5019583;28;20037;-68
2023/09/14 01:33:33;;;;;;;2.55;2.45;;;;;;;;;;5018418;28;20050;-69
2023/09/14 01:36:06;;;;;;;19.30;17.33;;;;;;;;;;5019953;28;20501;-68
2023/09/14 01:38:35;;;;;;;0.00;0.00;;;;;;;;;;5020574;28;20116;-69
2023/09/14 01:41:03;;;;;;;0.00;0.00;;;;;;;;;;5021865;28;20054;-69
2023/09/14 01:43:31;;;;;;;0.45;0.40;;;;;;;;;;5018914;28;20049;-69
2023/09/14 01:45:59;;;;;;;0.15;0.15;;;;;;;;;;5020631;28;20045;-68
2023/09/14 01:48:26;;;;;;;0.13;0.13;;;;;;;;;;5019485;28;20075;-68
2023/09/14 01:50:54;;;;;;;0.10;0.10;;;;;;;;;;5018424;28;20041;-69
2023/09/14 01:53:21;;;;;;;0.00;0.00;;;;;;;;;;5016485;28;20139;-69
2023/09/14 01:55:48;;;;;;;0.00;0.00;;;;;;;;;;5017970;28;20033;-68
2023/09/14 01:58:16;;;;;;;0.10;0.10;;;;;;;;;;5019181;28;20044;-69
2023/09/14 02:00:43;;;;;;;0.00;0.00;;;;;;;;;;5033905;28;20132;-72
2023/09/14 02:03:11;;;;;;;0.00;0.00;;;;;;;;;;5016627;28;20156;-74
2023/09/14 02:05:40;;;;;;;0.00;0.00;;;;;;;;;;5020903;28;20049;-73
2023/09/14 02:08:07;;;;;;;0.08;0.08;;;;;;;;;;5013331;28;20044;-75
2023/09/14 02:10:34;;;;;;;0.00;0.00;;;;;;;;;;5017153;28;21000;-71
2023/09/14 02:13:02;;;;;;;0.00;0.00;;;;;;;;;;5017156;28;20050;-71
2023/09/14 02:15:29;;;;;;;0.10;0.10;;;;;;;;;;5014266;28;20046;-76
2023/09/14 02:18:00;;;;;;;0.10;0.10;;;;;;;;;;5017052;28;20213;-71
2023/09/14 02:20:28;;;;;;;0.20;0.20;;;;;;;;;;5014546;28;20111;-74
2023/09/14 02:22:55;;;;;;;0.00;0.00;;;;;;;;;;5019383;28;20065;-75
2023/09/14 02:25:23;;;;;;;0.10;0.10;;;;;;;;;;5062713;22;20056;-74
2023/09/14 02:27:51;;;;;;;0.00;0.00;;;;;;;;;;5032250;28;20045;-75
2023/09/14 02:30:18;;;;;;;0.00;0.00;;;;;;;;;;5033755;28;20466;-76
2023/09/14 02:32:46;;;;;;;0.05;0.05;;;;;;;;;;5022222;28;20046;-75
2023/09/14 02:35:14;;;;;;;0.00;0.00;;;;;;;;;;5021248;28;20595;-75
2023/09/14 02:37:41;;;;;;;0.00;0.00;;;;;;;;;;5019906;28;20042;-75
2023/09/14 02:40:09;;;;;;;0.00;0.00;;;;;;;;;;5014880;28;20491;-75
2023/09/14 02:42:37;;;;;;;0.00;0.00;;;;;;;;;;5021286;28;20037;-75
2023/09/14 02:45:07;;;;;;;0.00;0.00;;;;;;;;;;5018016;28;20095;-76
2023/09/14 02:47:34;;;;;;;0.30;0.30;;;;;;;;;;5023668;28;20049;-76
2023/09/14 02:50:01;;;;;;;1.75;0.77;;;;;;;;;;5018825;28;20061;-75
2023/09/14 02:52:29;;;;;;;0.00;0.00;;;;;;;;;;5022122;28;20060;-76
2023/09/14 02:54:56;;;;;;;0.00;0.00;;;;;;;;;;5021641;28;20069;-75
2023/09/14 02:57:24;;;;;;;0.00;0.00;;;;;;;;;;5022251;28;20104;-76
2023/09/14 02:59:54;;;;;;;0.10;0.10;;;;;;;;;;5021463;28;20045;-76
2023/09/14 03:02:22;;;;;;;0.00;0.00;;;;;;;;;;5021920;28;20467;-77
2023/09/14 03:04:50;;;;;;;0.00;0.00;;;;;;;;;;5025538;28;20069;-76
2023/09/14 03:07:18;;;;;;;0.00;0.00;;;;;;;;;;5026633;28;20099;-75
2023/09/14 03:09:45;;;;;;;0.20;0.20;;;;;;;;;;5028566;28;20562;-76
2023/09/14 03:12:12;;;;;;;0.03;0.03;;;;;;;;;;5025203;28;20033;-76
2023/09/14 03:14:40;;;;;;;0.55;0.30;;;;;;;;;;5029155;28;20055;-75
2023/09/14 03:17:07;;;;;;;3.55;2.22;;;;;;;;;;5023284;28;20569;-75
2023/09/14 03:19:35;;;;;;;0.20;0.20;;;;;;;;;;5021474;28;20093;-75
2023/09/14 03:22:02;;;;;;;0.00;0.00;;;;;;;;;;5024651;28;20136;-75
2023/09/14 03:24:30;;;;;;;0.10;0.10;;;;;;;;;;5032414;28;20459;-75
2023/09/14 03:26:57;;;;;;;0.10;0.10;;;;;;;;;;5024309;28;20064;-76
2023/09/14 03:29:25;;;;;;;26.73;24.85;;;;;;;;;;5026610;28;20044;-76
2023/09/14 03:31:52;;;;;;;0.17;0.17;;;;;;;;;;5026802;28;20091;-75
2023/09/14 03:34:20;;;;;;;0.00;0.00;;;;;;;;;;5023476;28;20041;-76
2023/09/14 03:36:48;;;;;;;0.80;0.47;;;;;;;;;;5025853;28;20050;-76
2023/09/14 03:39:15;;;;;;;0.00;0.00;;;;;;;;;;5022171;28;20137;-76
2023/09/14 03:41:44;;;;;;;0.00;0.00;;;;;;;;;;5048495;28;20053;-76
2023/09/14 03:44:12;;;;;;;0.00;0.00;;;;;;;;;;5025890;28;20136;-76
2023/09/14 03:46:39;;;;;;;1.30;1.30;;;;;;;;;;5035893;28;20053;-76
2023/09/14 03:49:07;;;;;;;0.00;0.00;;;;;;;;;;5032127;28;20380;-76
2023/09/14 03:51:35;;;;;;;0.10;0.10;;;;;;;;;;5031278;28;20045;-77
2023/09/14 03:54:02;;;;;;;2.95;0.70;;;;;;;;;;5028566;28;20087;-76
2023/09/14 03:56:30;;;;;;;0.00;0.00;;;;;;;;;;5029386;28;20044;-77
2023/09/14 03:58:57;;;;;;;9.07;8.48;;;;;;;;;;5023166;28;20053;-76
2023/09/14 04:01:25;;;;;;;0.00;0.00;;;;;;;;;;5028280;28;20048;-76
2023/09/14 04:03:53;;;;;;;4.43;4.13;;;;;;;;;;5024687;28;20396;-76
2023/09/14 04:06:22;;;;;;;0.22;0.22;;;;;;;;;;5025107;28;20052;-75
2023/09/14 04:08:50;;;;;;;0.00;0.00;;;;;;;;;;5021757;28;20320;-76
2023/09/14 04:11:17;;;;;;;0.00;0.00;;;;;;;;;;5024275;28;20057;-76
2023/09/14 04:13:45;;;;;;;0.00;0.00;;;;;;;;;;5033327;28;20093;-76
2023/09/14 04:16:13;;;;;;;0.00;0.00;;;;;;;;;;5025539;28;20375;-76
2023/09/14 04:18:44;;;;;;;0.00;0.00;;;;;;;;;;5027128;28;20376;-76
2023/09/14 04:21:13;;;;;;;0.20;0.20;;;;;;;;;;5021840;28;20111;-76
2023/09/14 04:23:40;;;;;;;0.00;0.00;;;;;;;;;;5025415;28;20045;-76
2023/09/14 04:26:11;;;;;;;11.60;10.90;;;;;;;;;;5026601;28;20418;-76
2023/09/14 04:28:39;;;;;;;0.00;0.00;;;;;;;;;;5025638;28;20371;-76
2023/09/14 04:31:09;;;;;;;0.55;0.38;;;;;;;;;;5027834;28;20044;-76
2023/09/14 04:33:37;;;;;;;0.00;0.00;;;;;;;;;;5038905;28;20083;-76
2023/09/14 04:36:07;;;;;;;0.00;0.00;;;;;;;;;;5030075;28;20079;-76
2023/09/14 04:38:39;;;;;;;0.00;0.00;;;;;;;;;;5024075;28;20148;-75
2023/09/14 04:41:06;;;;;;;0.03;0.03;;;;;;;;;;5026233;28;20069;-76
2023/09/14 04:43:34;;;;;;;0.30;0.30;;;;;;;;;;5028098;28;20052;-75
2023/09/14 04:46:03;;;;;;;0.00;0.00;;;;;;;;;;5046831;28;20049;-75
2023/09/14 04:48:30;;;;;;;0.00;0.00;;;;;;;;;;5023028;28;20563;-76
2023/09/14 04:50:59;;;;;;;0.00;0.00;;;;;;;;;;5032150;28;20085;-75
2023/09/14 04:53:26;;;;;;;0.20;0.20;;;;;;;;;;5029099;28;20507;-75
2023/09/14 04:55:54;;;;;;;6.13;5.72;;;;;;;;;;5032711;28;20100;-76
2023/09/14 04:58:21;;;;;;;7.40;6.88;;;;;;;;;;5004185;28;20467;-76
2023/09/14 05:00:53;;;;;;;0.00;0.00;;;;;;;;;;5021003;28;20061;-76
2023/09/14 05:03:21;;;;;;;0.00;0.00;;;;;;;;;;5023225;28;20128;-77
2023/09/14 05:05:50;;;;;;;0.10;0.10;;;;;;;;;;5020547;28;20055;-76
2023/09/14 05:08:17;;;;;;;0.13;0.13;;;;;;;;;;5020158;28;20416;-76
2023/09/14 05:10:45;;;;;;;7.30;6.85;;;;;;;;;;5045411;28;20053;-76
2023/09/14 05:13:12;;;;;;;0.00;0.00;;;;;;;;;;5018363;28;20140;-76
2023/09/14 05:15:40;;;;;;;1.73;1.60;;;;;;;;;;5021637;28;20159;-76
2023/09/14 05:18:07;;;;;;;0.10;0.10;;;;;;;;;;5020495;28;20405;-77
2023/09/14 05:20:36;;;;;;;0.00;0.00;;;;;;;;;;5033650;28;21052;-75
2023/09/14 05:23:04;;;;;;;33.30;30.83;;;;;;;;;;5013445;28;20176;-77
2023/09/14 05:25:32;;;;;;;12.88;12.15;;;;;;;;;;5010754;28;20061;-75
2023/09/14 05:28:03;;;;;;;0.35;0.35;;;;;;;;;;5020965;28;20243;-76
2023/09/14 05:30:32;;;;;;;1.67;1.63;;;;;;;;;;5019619;28;20067;-76
2023/09/14 05:33:00;;;;;;;0.08;0.08;;;;;;;;;;5018777;28;20048;-77
2023/09/14 05:35:27;;;;;;;0.38;0.38;;;;;;;;;;5017507;28;20483;-76
2023/09/14 05:37:55;;;;;;;0.40;0.30;;;;;;;;;;5018277;28;20049;-76
2023/09/14 05:40:25;;;;;;;0.63;0.63;;;;;;;;;;5022476;28;20045;-76
2023/09/14 05:42:53;;;;;;;11.75;11.05;;;;;;;;;;5015234;28;20139;-76
2023/09/14 05:45:20;;;;;;;4.10;3.90;;;;;;;;;;5018929;28;22378;-77
2023/09/14 05:47:48;;;;;;;0.00;0.00;;;;;;;;;;5030651;28;20041;-76
2023/09/14 05:50:15;;;;;;;0.00;0.00;;;;;;;;;;5023957;28;20172;-76
2023/09/14 05:52:43;;;;;;;0.20;0.20;;;;;;;;;;5022400;28;20057;-76
2023/09/14 05:55:10;;;;;;;0.30;0.22;;;;;;;;;;5018191;28;20698;-76
2023/09/14 05:57:38;;;;;;;0.00;0.00;;;;;;;;;;5017964;28;20046;-76
2023/09/14 06:00:12;;;;;;;1.13;0.85;;;;;;;;;;5021576;28;20049;-76
2023/09/14 06:02:45;;;;;;;5.75;5.47;;;;;;;;;;5021328;28;20499;-76
2023/09/14 06:05:14;;;;;;;0.13;0.13;;;;;;;;;;5012734;28;20041;-76
2023/09/14 06:07:52;;;;;;;0.25;0.22;;;;;;;;;;5027046;28;20526;-76
2023/09/14 06:10:20;;;;;;;0.00;0.00;;;;;;;;;;5023669;28;20430;-76
2023/09/14 06:12:50;;;;;;;0.13;0.13;;;;;;;;;;5025690;28;20041;-76
2023/09/14 06:15:18;;;;;;;11.32;10.57;;;;;;;;;;5016479;28;20055;-76
2023/09/14 06:17:47;;;;;;;0.00;0.00;;;;;;;;;;5021943;28;20492;-77
2023/09/14 06:20:15;;;;;;;0.00;0.00;;;;;;;;;;5017187;28;20056;-76
2023/09/14 06:22:42;;;;;;;0.25;0.25;;;;;;;;;;5023440;28;20041;-77
2023/09/14 06:25:10;;;;;;;0.45;0.28;;;;;;;;;;5024166;28;20056;-76
2023/09/14 06:27:38;;;;;;;0.03;0.03;;;;;;;;;;5028806;28;20056;-76
2023/09/14 06:30:06;;;;;;;0.13;0.13;;;;;;;;;;5025516;28;20189;-77
2023/09/14 06:32:34;;;;;;;0.25;0.20;;;;;;;;;;5014096;28;20073;-77
2023/09/14 06:35:02;;;;;;;0.22;0.22;;;;;;;;;;5032930;28;20045;-77
2023/09/14 06:37:30;;;;;;;0.00;0.00;;;;;;;;;;5034261;28;20046;-76
2023/09/14 06:39:57;;;;;;;0.10;0.10;;;;;;;;;;5029268;28;20362;-76
2023/09/14 06:42:25;;;;;;;1.20;0.55;;;;;;;;;;5029695;28;20083;-76
2023/09/14 06:44:53;;;;;;;0.00;0.00;;;;;;;;;;5031764;28;20124;-76
2023/09/14 06:47:20;;;;;;;0.00;0.00;;;;;;;;;;5031031;28;20057;-75
2023/09/14 06:49:48;;;;;;;0.00;0.00;;;;;;;;;;5037490;28;20116;-76
2023/09/14 06:52:15;;;;;;;3.40;3.20;;;;;;;;;;5022584;28;20113;-76
2023/09/14 06:54:45;;;;;;;0.10;0.10;;;;;;;;;;5019970;28;20456;-76
2023/09/14 06:57:13;;;;;;;0.00;0.00;;;;;;;;;;5027739;28;20529;-76
2023/09/14 06:59:40;;;;;;;0.00;0.00;;;;;;;;;;5016437;28;20045;-76
2023/09/14 07:02:12;;;;;;;0.32;0.32;;;;;;;;;;5027488;28;20127;-75
2023/09/14 07:04:39;;;;;;;0.10;0.10;;;;;;;;;;5029105;28;20041;-75
2023/09/14 07:07:07;;;;;;;1.20;1.10;;;;;;;;;;5036179;28;20054;-75
2023/09/14 07:09:35;;;;;;;0.88;0.88;;;;;;;;;;5026383;28;20103;-75
2023/09/14 07:12:02;;;;;;;0.30;0.30;;;;;;;;;;5021886;28;20067;-75
2023/09/14 07:14:30;;;;;;;0.10;0.10;;;;;;;;;;5027246;28;20045;-75
2023/09/14 07:16:58;;;;;;;0.30;0.30;;;;;;;;;;5024845;28;20045;-76
2023/09/14 07:19:26;;;;;;;0.00;0.00;;;;;;;;;;5028549;28;20125;-75
2023/09/14 07:21:57;;;;;;;0.17;0.15;;;;;;;;;;5032888;28;20571;-76
2023/09/14 07:24:26;;;;;;;0.00;0.00;;;;;;;;;;5029165;28;20125;-75
2023/09/14 07:26:54;;;;;;;0.00;0.00;;;;;;;;;;5039133;28;20045;-75
2023/09/14 07:29:22;;;;;;;0.52;0.52;;;;;;;;;;5032755;28;20060;-75
2023/09/14 07:31:50;;;;;;;0.43;0.43;;;;;;;;;;5027392;28;20048;-75
2023/09/14 07:34:17;;;;;;;1.55;1.02;;;;;;;;;;5030108;28;20062;-75
2023/09/14 07:36:45;;;;;;;0.17;0.17;;;;;;;;;;5023202;28;20144;-75
2023/09/14 07:39:13;;;;;;;0.75;0.75;;;;;;;;;;5030139;28;20084;-75
2023/09/14 07:41:40;;;;;;;0.15;0.15;;;;;;;;;;5035500;28;20068;-75
2023/09/14 07:44:07;;;;;;;0.45;0.45;;;;;;;;;;5026337;28;20045;-75
2023/09/14 07:46:36;;;;;;;0.17;0.17;;;;;;;;;;5039475;28;20507;-75
2023/09/14 07:49:04;;;;;;;2.10;1.98;;;;;;;;;;5030723;28;20049;-74
2023/09/14 07:51:33;;;;;;;0.43;0.43;;;;;;;;;;5022405;28;20056;-74
2023/09/14 07:54:00;;;;;;;0.52;0.52;;;;;;;;;;5037384;28;20041;-75
2023/09/14 07:56:28;;;;;;;0.00;0.00;;;;;;;;;;5034035;28;20051;-75
2023/09/14 07:58:56;;;;;;;0.08;0.08;;;;;;;;;;5036073;28;20076;-75
2023/09/14 08:01:23;;;;;;;0.00;0.00;;;;;;;;;;5034412;28;20132;-75
2023/09/14 08:03:51;;;;;;;4.63;4.38;;;;;;;;;;5027295;28;20056;-75
2023/09/14 08:06:21;;;;;;;1.33;0.75;;;;;;;;;;5027459;28;20053;-75
2023/09/14 08:08:53;;;;;;;0.15;0.15;;;;;;;;;;5046616;28;20096;-74
2023/09/14 08:11:21;;;;;;;1.23;1.17;;;;;;;;;;5029078;28;20057;-74
2023/09/14 08:13:48;;;;;;;0.00;0.00;;;;;;;;;;5028527;28;20422;-74
2023/09/14 08:16:16;;;;;;;3.70;3.50;;;;;;;;;;5028474;28;20048;-75
2023/09/14 08:18:43;;;;;;;0.45;0.28;;;;;;;;;;5036751;28;20458;-74
2023/09/14 08:21:11;;;;;;;8.35;7.85;;;;;;;;;;5032605;28;20052;-75
2023/09/14 08:23:39;;;;;;;0.25;0.15;;;;;;;;;;5030218;28;20128;-74
2023/09/14 08:26:06;;;;;;;0.00;0.00;;;;;;;;;;5045502;22;20049;-73
2023/09/14 08:28:34;;;;;;;0.40;0.40;;;;;;;;;;5021704;28;20057;-74
2023/09/14 08:31:01;;;;;;;0.10;0.10;;;;;;;;;;5034849;28;20136;-74
2023/09/14 08:33:29;;;;;;;0.32;0.32;;;;;;;;;;5022819;28;20073;-74
2023/09/14 08:35:57;;;;;;;0.00;0.00;;;;;;;;;;5017794;28;20362;-74
2023/09/14 08:38:26;;;;;;;0.05;0.05;;;;;;;;;;5022210;28;20041;-74
2023/09/14 08:40:54;;;;;;;1.80;1.67;;;;;;;;;;5024682;28;20124;-74
2023/09/14 08:43:22;;;;;;;2.58;2.47;;;;;;;;;;5017941;28;20049;-75
2023/09/14 08:45:50;;;;;;;0.00;0.00;;;;;;;;;;5014776;28;20049;-75
2023/09/14 08:48:21;;;;;;;0.50;0.50;;;;;;;;;;5017449;28;20450;-74
2023/09/14 08:50:49;;;;;;;0.28;0.25;;;;;;;;;;5017219;28;20140;-74
2023/09/14 08:53:16;;;;;;;0.00;0.00;;;;;;;;;;5012396;28;20104;-74
2023/09/14 08:55:44;;;;;;;0.08;0.08;;;;;;;;;;5013386;28;20344;-74
2023/09/14 08:58:15;;;;;;;2.08;0.45;;;;;;;;;;5012549;28;20048;-74
2023/09/14 09:00:43;;;;;;;13.15;12.35;;;;;;;;;;5011908;28;20776;-75
2023/09/14 09:03:10;;;;;;;0.00;0.00;;;;;;;;;;5020680;28;20324;-74
2023/09/14 09:05:38;;;;;;;0.55;0.55;;;;;;;;;;5024143;28;20046;-75
2023/09/14 09:08:06;;;;;;;2.20;2.10;;;;;;;;;;5023876;28;20582;-75
2023/09/14 09:10:34;;;;;;;0.68;0.17;;;;;;;;;;5022767;28;20420;-75
2023/09/14 09:13:03;;;;;;;0.00;0.00;;;;;;;;;;5023981;28;20068;-76
2023/09/14 09:15:32;;;;;;;1.55;1.55;;;;;;;;;;5023886;28;20168;-75
2023/09/14 09:18:10;;;;;;;0.20;0.20;;;;;;;;;;5016654;28;20065;-75
2023/09/14 09:20:45;;;;;;;0.00;0.00;;;;;;;;;;5016152;28;21293;-76
2023/09/14 09:23:19;;;;;;;28.23;26.67;;;;;;;;;;5012529;28;20042;-76
2023/09/14 09:25:52;;;;;;;14.77;13.65;;;;;;;;;;5022501;28;20053;-76
2023/09/14 09:28:28;;;;;;;16.85;15.90;;;;;;;;;;5011469;28;20065;-76
2023/09/14 09:30:55;;;;;;;0.28;0.17;;;;;;;;;;5015425;28;20517;-76
2023/09/14 09:33:35;;;;;;;0.00;0.00;;;;;;;;;;5016127;28;20061;-76
2023/09/14 09:36:16;;;;;;;0.10;0.10;;;;;;;;;;5012165;28;20172;-76
2023/09/14 09:38:45;;;;;;;0.40;0.40;;;;;;;;;;5012502;28;20488;-76
2023/09/14 09:41:15;;;;;;;6.03;5.68;;;;;;;;;;5016372;28;20440;-76
2023/09/14 09:43:44;;;;;;;0.10;0.10;;;;;;;;;;5013793;28;20511;-76
2023/09/14 09:46:15;;;;;;;0.10;0.10;;;;;;;;;;5017458;28;20519;-76
2023/09/14 09:48:43;;;;;;;0.10;0.10;;;;;;;;;;5017018;28;20053;-76
2023/09/14 09:51:11;;;;;;;0.00;0.00;;;;;;;;;;5020426;28;20144;-76
2023/09/14 09:53:59;;;;;;;0.82;0.80;;;;;;;;;;5020714;28;20061;-75
2023/09/14 09:56:26;;;;;;;0.03;0.03;;;;;;;;;;5020284;28;20049;-76
2023/09/14 09:58:54;;;;;;;0.30;0.30;;;;;;;;;;5016276;28;20053;-76
2023/09/14 10:01:21;;;;;;;0.03;0.03;;;;;;;;;;5022810;28;20099;-76
2023/09/14 10:03:49;;;;;;;5.35;5.05;;;;;;;;;;5024445;28;20057;-76
2023/09/14 10:06:17;;;;;;;5.65;5.32;;;;;;;;;;5025922;28;20450;-74
2023/09/14 10:08:52;;;;;;;42.75;40.08;;;;;;;;;;5017872;28;20488;-73
2023/09/14 10:11:22;;;;;;;0.00;0.00;;;;;;;;;;5027509;28;20046;-76
2023/09/14 10:13:51;;;;;;;0.32;0.32;;;;;;;;;;5026813;28;20049;-76
2023/09/14 10:16:21;;;;;;;0.30;0.10;;;;;;;;;;5026286;28;20487;-76
2023/09/14 10:18:50;;;;;;;6.45;6.15;;;;;;;;;;5023950;28;20041;-76
2023/09/14 10:21:18;;;;;;;0.45;0.45;;;;;;;;;;5025928;28;20064;-76
2023/09/14 10:23:46;;;;;;;0.60;0.60;;;;;;;;;;5023957;28;20046;-75
2023/09/14 10:26:14;;;;;;;21.42;19.75;;;;;;;;;;5025495;28;20057;-73
2023/09/14 10:28:41;;;;;;;27.38;25.42;;;;;;;;;;5013451;28;20050;-75
2023/09/14 10:31:10;;;;;;;25.17;23.15;;;;;;;;;;5019717;28;20064;-75
2023/09/14 10:33:38;;;;;;;25.23;23.75;;;;;;;;;;5021843;28;20042;-73
2023/09/14 10:36:06;;;;;;;4.72;4.47;;;;;;;;;;5021508;28;20045;-74
2023/09/14 10:38:38;;;;;;;0.00;0.00;;;;;;;;;;5020445;28;20102;-73
2023/09/14 10:41:05;;;;;;;0.20;0.20;;;;;;;;;;5019495;28;20048;-76
2023/09/14 10:43:33;;;;;;;0.10;0.10;;;;;;;;;;5018370;28;20050;-75
2023/09/14 10:46:01;;;;;;;5.13;4.82;;;;;;;;;;5021740;28;20056;-76
2023/09/14 10:48:29;;;;;;;0.35;0.35;;;;;;;;;;5017863;28;20474;-75
2023/09/14 10:50:58;;;;;;;3.40;2.05;;;;;;;;;;5017252;28;20468;-76
2023/09/14 10:53:26;;;;;;;0.88;0.88;;;;;;;;;;5021337;28;20052;-76
2023/09/14 10:55:54;;;;;;;3.65;3.47;;;;;;;;;;5019660;28;20046;-74
2023/09/14 10:58:21;;;;;;;3.90;3.70;;;;;;;;;;5017600;28;20053;-75
2023/09/14 11:00:57;;;;;;;0.98;0.32;;;;;;;;;;5018705;28;20034;-75
2023/09/14 11:04:03;;;;;;;3.55;3.33;;;;;;;;;;5018971;28;20046;-74
2023/09/14 11:06:44;;;;;;;0.30;0.30;;;;;;;;;;5023918;28;20518;-76
2023/09/14 11:09:16;;;;;;;6.78;6.43;;;;;;;;;;5020848;28;20410;-76
2023/09/14 11:11:45;;;;;;;0.30;0.30;;;;;;;;;;5018388;28;20045;-73
2023/09/14 11:14:14;;;;;;;0.93;0.93;;;;;;;;;;5023623;28;20397;-73
2023/09/14 11:16:47;;;;;;;1.40;0.52;;;;;;;;;;5020658;28;20049;-75
2023/09/14 11:19:30;;;;;;;0.30;0.30;;;;;;;;;;5021213;28;20525;-72
2023/09/14 11:22:13;;;;;;;1.80;1.70;;;;;;;;;;5022545;28;20056;-72
2023/09/14 11:24:41;;;;;;;;;;;;;;;;;;5017409;28;20045;-72
2023/09/14 11:27:17;;;;;;;6.18;5.88;;;;;;;;;;5015936;28;19921;-74
2023/09/14 11:29:49;;;;;;;0.22;0.20;;;;;;;;;;5020141;28;20103;-73
2023/09/14 11:32:22;;;;;;;0.00;0.00;;;;;;;;;;5015475;28;20054;-73
2023/09/14 11:34:56;;;;;;;0.03;0.03;;;;;;;;;;5024185;28;20057;-73
2023/09/14 11:37:30;;;;;;;0.57;0.57;;;;;;;;;;5020927;28;20042;-72
2023/09/14 11:40:06;;;;;;;0.25;0.20;;;;;;;;;;5016682;28;20582;-73
2023/09/14 11:42:55;;;;;;;0.30;0.30;;;;;;;;;;5013551;28;20042;-71
2023/09/14 11:45:27;;;;;;;0.20;0.20;;;;;;;;;;5015565;28;20038;-72
2023/09/14 11:47:56;;;;;;;23.83;22.48;;;;;;;;;;5008628;28;21106;-73
2023/09/14 11:50:25;;;;;;;1.13;1.10;;;;;;;;;;5012958;28;20058;-72
2023/09/14 11:52:54;;;;;;;0.45;0.45;;;;;;;;;;5019873;28;20092;-73
2023/09/14 11:55:22;;;;;;;0.00;0.00;;;;;;;;;;5021060;28;20565;-72
2023/09/14 11:57:49;;;;;;;0.63;0.63;;;;;;;;;;5017504;28;20060;-73
2023/09/14 12:00:17;;;;;;;18.52;17.35;;;;;;;;;;5019560;28;20053;-72
2023/09/14 12:02:44;;;;;;;0.38;0.38;;;;;;;;;;5021577;28;20048;-72
2023/09/14 12:05:12;;;;;;;0.20;0.20;;;;;;;;;;5023827;28;20051;-73
2023/09/14 12:07:39;;;;;;;0.10;0.10;;;;;;;;;;5022810;28;20061;-73
2023/09/14 12:10:19;;;;;;;0.00;0.00;;;;;;;;;;5022942;28;20037;-74
2023/09/14 12:12:47;;;;;;;0.00;0.00;;;;;;;;;;5020459;28;20092;-74
2023/09/14 12:15:21;;;;;;;2.25;2.15;;;;;;;;;;5023064;28;20060;-74
2023/09/14 12:17:52;;;;;;;0.00;0.00;;;;;;;;;;5021119;28;20052;-72
2023/09/14 12:20:20;;;;;;;0.00;0.00;;;;;;;;;;5020185;28;20059;-73
2023/09/14 12:22:47;;;;;;;0.00;0.00;;;;;;;;;;5022239;28;20071;-74
2023/09/14 12:25:15;;;;;;;1.80;0.75;;;;;;;;;;5019897;28;20427;-74
2023/09/14 12:27:43;;;;;;;0.25;0.25;;;;;;;;;;5019479;28;20117;-74
2023/09/14 12:30:11;;;;;;;0.10;0.10;;;;;;;;;;5018511;28;20049;-74
2023/09/14 12:32:39;;;;;;;14.55;13.50;;;;;;;;;;5021042;28;20053;-75
2023/09/14 12:35:07;;;;;;;0.20;0.20;;;;;;;;;;5014880;28;20072;-72
2023/09/14 12:37:35;;;;;;;0.00;0.00;;;;;;;;;;5019996;28;20041;-74
2023/09/14 12:40:06;;;;;;;0.20;0.20;;;;;;;;;;5020712;28;20041;-74
2023/09/14 12:42:35;;;;;;;0.20;0.20;;;;;;;;;;5020647;28;20042;-74
2023/09/14 12:45:04;;;;;;;0.00;0.00;;;;;;;;;;5020444;28;20061;-74
2023/09/14 12:47:34;;;;;;;0.00;0.00;;;;;;;;;;5019623;28;20041;-74
2023/09/14 12:50:02;;;;;;;0.00;0.00;;;;;;;;;;5017601;28;20530;-73
2023/09/14 12:52:30;;;;;;;0.10;0.10;;;;;;;;;;5017814;28;20069;-73
2023/09/14 12:55:05;;;;;;;0.10;0.10;;;;;;;;;;5022314;28;20049;-73
2023/09/14 12:57:35;;;;;;;9.77;9.13;;;;;;;;;;5023223;28;20057;-74
2023/09/14 13:00:11;;;;;;;0.50;0.50;;;;;;;;;;5019862;28;20118;-74
2023/09/14 13:02:40;;;;;;;0.00;0.00;;;;;;;;;;5020769;28;20308;-75
2023/09/14 13:05:08;;;;;;;0.20;0.20;;;;;;;;;;5012399;28;20523;-74
2023/09/14 13:07:38;;;;;;;0.00;0.00;;;;;;;;;;5011239;28;20068;-74
2023/09/14 13:10:10;;;;;;;0.10;0.10;;;;;;;;;;5016950;28;20499;-74
2023/09/14 13:12:42;;;;;;;0.10;0.10;;;;;;;;;;5015782;28;20049;-73
2023/09/14 13:15:11;;;;;;;0.00;0.00;;;;;;;;;;5015028;28;20037;-75
2023/09/14 13:17:38;;;;;;;0.00;0.00;;;;;;;;;;5017420;28;20045;-74
2023/09/14 13:20:12;;;;;;;0.25;0.22;;;;;;;;;;5021081;28;20455;-72
2023/09/14 13:22:39;;;;;;;0.20;0.20;;;;;;;;;;5018237;28;21462;-74
2023/09/14 13:25:07;;;;;;;0.15;0.15;;;;;;;;;;5020524;28;20136;-74
2023/09/14 13:27:35;;;;;;;0.73;0.73;;;;;;;;;;5019990;28;20458;-74
2023/09/14 13:30:06;;;;;;;0.43;0.43;;;;;;;;;;5017975;28;20050;-73
2023/09/14 13:32:33;;;;;;;0.30;0.30;;;;;;;;;;5015677;28;20059;-74
2023/09/14 13:35:01;;;;;;;0.22;0.20;;;;;;;;;;5020569;28;20091;-75
2023/09/14 13:37:28;;;;;;;0.10;0.10;;;;;;;;;;5017663;28;20038;-74
2023/09/14 13:39:56;;;;;;;0.28;0.20;;;;;;;;;;5019898;28;20060;-74
2023/09/14 13:42:24;;;;;;;0.10;0.10;;;;;;;;;;5018331;28;20684;-75
2023/09/14 13:44:51;;;;;;;0.00;0.00;;;;;;;;;;5017182;28;20038;-74
2023/09/14 13:47:19;;;;;;;0.00;0.00;;;;;;;;;;5014974;28;20137;-74
2023/09/14 13:49:47;;;;;;;0.10;0.10;;;;;;;;;;5011459;28;20059;-74
2023/09/14 13:52:15;;;;;;;0.20;0.20;;;;;;;;;;5018848;28;20068;-74
2023/09/14 13:54:42;;;;;;;0.00;0.00;;;;;;;;;;5021418;28;20049;-72
2023/09/14 13:57:11;;;;;;;0.08;0.08;;;;;;;;;;5022198;28;20042;-74
2023/09/14 13:59:39;;;;;;;0.20;0.20;;;;;;;;;;5021521;28;20041;-74
2023/09/14 14:02:07;;;;;;;0.30;0.30;;;;;;;;;;5018666;28;20111;-74
2023/09/14 14:04:34;;;;;;;0.52;0.52;;;;;;;;;;5020341;28;20384;-73
2023/09/14 14:07:02;;;;;;;0.25;0.10;;;;;;;;;;5017239;28;20459;-73
2023/09/14 14:09:30;;;;;;;0.00;0.00;;;;;;;;;;5018052;28;20053;-74
2023/09/14 14:12:00;;;;;;;0.00;0.00;;;;;;;;;;5021276;28;20057;-74
2023/09/14 14:14:28;;;;;;;1.08;0.50;;;;;;;;;;5016663;28;20046;-72
2023/09/14 14:17:04;;;;;;;0.00;0.00;;;;;;;;;;5016028;28;20049;-74
2023/09/14 14:19:32;;;;;;;0.10;0.10;;;;;;;;;;5008567;28;20049;-71
2023/09/14 14:22:00;;;;;;;0.10;0.10;;;;;;;;;;5010961;28;20108;-74
2023/09/14 14:24:30;;;;;;;0.08;0.08;;;;;;;;;;5017345;28;20404;-74
2023/09/14 14:26:58;;;;;;;0.17;0.15;;;;;;;;;;5036219;23;20056;-71
2023/09/14 14:29:26;;;;;;;0.10;0.10;;;;;;;;;;5011205;28;20108;-71
2023/09/14 14:31:53;;;;;;;0.00;0.00;;;;;;;;;;5012942;28;20529;-71
2023/09/14 14:34:21;;;;;;;0.10;0.10;;;;;;;;;;5017900;28;20044;-71
2023/09/14 14:36:48;;;;;;;0.30;0.30;;;;;;;;;;5013318;28;20049;-71
2023/09/14 14:39:16;;;;;;;0.00;0.00;;;;;;;;;;5014632;28;20073;-71
2023/09/14 14:41:43;;;;;;;0.57;0.20;;;;;;;;;;5015971;28;20049;-72
2023/09/14 14:44:13;;;;;;;0.20;0.20;;;;;;;;;;5008507;28;20089;-71
2023/09/14 14:46:41;;;;;;;0.00;0.00;;;;;;;;;;5016473;28;20120;-71
2023/09/14 14:49:09;;;;;;;4.28;4.00;;;;;;;;;;5005945;28;20485;-72
2023/09/14 14:51:36;;;;;;;0.10;0.10;;;;;;;;;;5006590;28;20127;-72
2023/09/14 14:54:06;;;;;;;0.00;0.00;;;;;;;;;;5012442;28;20057;-71